sensor_id;sensor_type;location;lat;lon;timestamp;pressure;altitude;pressure_sealevel;temperature;humidity
57644;BME280;43474;46.510;6.686;2022-10-26T00:02:22;96500.81;;;12.29;100.00
57644;BME280;43474;46.510;6.686;2022-10-26T00:04:47;96535.47;;;12.39;100.00
57644;BME280;43474;46.510;6.686;2022-10-26T00:07:13;96571.56;;;12.35;100.00
57644;BME280;43474;46.510;6.686;2022-10-26T00:09:38;96587.44;;;12.30;100.00
57644;BME280;43474;46.510;6.686;2022-10-26T00:12:04;96604.56;;;12.23;100.00
57644;BME280;43474;46.510;6.686;2022-10-26T00:14:30;96596.13;;;12.26;100.00
57644;BME280;43474;46.510;6.686;2022-10-26T00:16:55;96603.16;;;12.15;100.00
57644;BME280;43474;46.510;6.686;2022-10-26T00:19:21;96672.72;;;12.46;100.00
57644;BME280;43474;46.510;6.686;2022-10-26T00:21:47;96613.19;;;12.13;100.00
57644;BME280;43474;46.510;6.686;2022-10-26T00:24:12;96648.31;;;12.49;100.00
57644;BME280;43474;46.510;6.686;2022-10-26T00:26:38;96625.91;;;12.28;100.00
57644;BME280;43474;46.510;6.686;2022-10-26T00:29:04;96591.78;;;12.20;100.00
57644;BME280;43474;46.510;6.686;2022-10-26T00:31:30;96619.72;;;12.39;100.00
57644;BME280;43474;46.510;6.686;2022-10-26T00:33:56;96588.66;;;11.77;100.00
57644;BME280;43474;46.510;6.686;2022-10-26T00:36:23;96712.00;;;12.27;100.00
57644;BME280;43474;46.510;6.686;2022-10-26T00:38:53;96776.44;;;12.34;100.00
57644;BME280;43474;46.510;6.686;2022-10-26T00:41:31;96785.88;;;12.41;100.00
57644;BME280;43474;46.510;6.686;2022-10-26T00:43:58;96759.03;;;12.26;100.00
57644;BME280;43474;46.510;6.686;2022-10-26T00:46:27;96757.78;;;12.17;100.00
57644;BME280;43474;46.510;6.686;2022-10-26T00:49:01;96805.47;;;12.52;100.00
57644;BME280;43474;46.510;6.686;2022-10-26T00:51:36;96813.13;;;12.49;100.00
57644;BME280;43474;46.510;6.686;2022-10-26T00:54:07;96777.78;;;12.48;100.00
57644;BME280;43474;46.510;6.686;2022-10-26T00:56:33;96805.78;;;12.56;100.00
57644;BME280;43474;46.510;6.686;2022-10-26T00:59:06;96821.69;;;12.67;100.00
57644;BME280;43474;46.510;6.686;2022-10-26T01:01:35;96820.84;;;12.50;100.00
57644;BME280;43474;46.510;6.686;2022-10-26T01:04:02;96830.19;;;12.53;100.00
57644;BME280;43474;46.510;6.686;2022-10-26T01:06:29;96812.97;;;12.55;100.00
57644;BME280;43474;46.510;6.686;2022-10-26T01:08:55;96790.19;;;12.31;100.00
57644;BME280;43474;46.510;6.686;2022-10-26T01:11:21;96762.44;;;12.38;100.00
57644;BME280;43474;46.510;6.686;2022-10-26T01:13:47;96749.72;;;12.57;100.00
57644;BME280;43474;46.510;6.686;2022-10-26T01:21:40;96740.72;;;12.58;100.00
57644;BME280;43474;46.510;6.686;2022-10-26T01:35:20;96804.09;;;12.21;100.00
57644;BME280;43474;46.510;6.686;2022-10-26T01:38:28;96814.47;;;12.34;100.00
57644;BME280;43474;46.510;6.686;2022-10-26T01:43:29;96847.25;;;12.68;100.00
57644;BME280;43474;46.510;6.686;2022-10-26T01:45:57;96799.59;;;12.50;100.00
57644;BME280;43474;46.510;6.686;2022-10-26T01:48:24;96800.63;;;12.49;100.00
57644;BME280;43474;46.510;6.686;2022-10-26T01:50:52;96860.75;;;12.67;100.00
57644;BME280;43474;46.510;6.686;2022-10-26T01:53:19;96869.56;;;12.39;100.00
57644;BME280;43474;46.510;6.686;2022-10-26T01:55:50;96876.41;;;12.63;100.00
57644;BME280;43474;46.510;6.686;2022-10-26T02:06:34;96770.63;;;12.37;100.00
57644;BME280;43474;46.510;6.686;2022-10-26T02:09:27;96814.03;;;12.71;100.00
57644;BME280;43474;46.510;6.686;2022-10-26T02:11:55;96777.31;;;12.68;100.00
57644;BME280;43474;46.510;6.686;2022-10-26T02:14:29;96765.63;;;12.69;100.00
57644;BME280;43474;46.510;6.686;2022-10-26T02:17:16;96674.88;;;12.32;100.00
57644;BME280;43474;46.510;6.686;2022-10-26T02:19:51;96741.69;;;12.69;100.00
57644;BME280;43474;46.510;6.686;2022-10-26T02:22:31;96693.81;;;12.35;100.00
57644;BME280;43474;46.510;6.686;2022-10-26T02:25:00;96683.81;;;12.26;100.00
57644;BME280;43474;46.510;6.686;2022-10-26T02:27:32;96747.41;;;12.61;100.00
57644;BME280;43474;46.510;6.686;2022-10-26T02:30:01;96729.50;;;12.56;100.00
57644;BME280;43474;46.510;6.686;2022-10-26T02:32:30;96738.91;;;12.47;100.00
57644;BME280;43474;46.510;6.686;2022-10-26T02:35:00;96765.19;;;12.44;100.00
57644;BME280;43474;46.510;6.686;2022-10-26T02:37:27;96785.31;;;12.39;100.00
57644;BME280;43474;46.510;6.686;2022-10-26T02:39:55;96790.66;;;12.56;100.00
57644;BME280;43474;46.510;6.686;2022-10-26T02:42:22;96791.63;;;12.67;100.00
57644;BME280;43474;46.510;6.686;2022-10-26T02:44:53;96772.88;;;12.74;100.00
57644;BME280;43474;46.510;6.686;2022-10-26T02:47:22;96764.34;;;12.43;100.00
57644;BME280;43474;46.510;6.686;2022-10-26T02:49:49;96850.16;;;12.84;100.00
57644;BME280;43474;46.510;6.686;2022-10-26T02:52:36;96866.47;;;13.04;100.00
57644;BME280;43474;46.510;6.686;2022-10-26T02:55:09;96850.72;;;13.03;100.00
57644;BME280;43474;46.510;6.686;2022-10-26T02:57:38;96825.44;;;13.00;100.00
57644;BME280;43474;46.510;6.686;2022-10-26T03:00:09;96777.59;;;12.72;100.00
57644;BME280;43474;46.510;6.686;2022-10-26T03:02:36;96780.75;;;12.85;100.00
57644;BME280;43474;46.510;6.686;2022-10-26T03:05:12;96785.75;;;12.82;100.00
57644;BME280;43474;46.510;6.686;2022-10-26T03:07:39;96735.41;;;12.58;100.00
57644;BME280;43474;46.510;6.686;2022-10-26T03:10:05;96786.38;;;12.72;100.00
57644;BME280;43474;46.510;6.686;2022-10-26T03:12:31;96789.38;;;12.76;100.00
57644;BME280;43474;46.510;6.686;2022-10-26T03:14:56;96783.81;;;12.77;100.00
57644;BME280;43474;46.510;6.686;2022-10-26T03:17:22;96752.28;;;12.52;100.00
57644;BME280;43474;46.510;6.686;2022-10-26T03:19:48;96752.97;;;12.59;100.00
57644;BME280;43474;46.510;6.686;2022-10-26T03:22:13;96760.34;;;12.40;100.00
57644;BME280;43474;46.510;6.686;2022-10-26T03:24:39;96761.78;;;12.31;100.00
57644;BME280;43474;46.510;6.686;2022-10-26T03:27:04;96721.94;;;12.03;100.00
57644;BME280;43474;46.510;6.686;2022-10-26T03:29:30;96760.97;;;12.31;100.00
57644;BME280;43474;46.510;6.686;2022-10-26T03:31:55;96785.88;;;12.41;100.00
57644;BME280;43474;46.510;6.686;2022-10-26T03:34:21;96755.91;;;12.29;100.00
57644;BME280;43474;46.510;6.686;2022-10-26T03:36:46;96767.69;;;12.50;100.00
57644;BME280;43474;46.510;6.686;2022-10-26T03:39:13;96745.03;;;12.48;100.00
57644;BME280;43474;46.510;6.686;2022-10-26T03:41:39;96718.06;;;12.56;100.00
57644;BME280;43474;46.510;6.686;2022-10-26T03:44:04;96714.94;;;12.59;100.00
57644;BME280;43474;46.510;6.686;2022-10-26T03:46:31;96708.91;;;12.63;100.00
57644;BME280;43474;46.510;6.686;2022-10-26T03:48:56;96724.59;;;12.65;100.00
57644;BME280;43474;46.510;6.686;2022-10-26T03:51:22;96699.28;;;12.46;100.00
57644;BME280;43474;46.510;6.686;2022-10-26T03:53:48;96740.94;;;12.57;100.00
57644;BME280;43474;46.510;6.686;2022-10-26T03:56:13;96761.50;;;12.95;100.00
57644;BME280;43474;46.510;6.686;2022-10-26T03:58:39;96723.53;;;12.83;100.00
57644;BME280;43474;46.510;6.686;2022-10-26T04:01:04;96709.84;;;12.74;100.00
57644;BME280;43474;46.510;6.686;2022-10-26T04:03:30;96788.59;;;13.09;100.00
57644;BME280;43474;46.510;6.686;2022-10-26T04:05:59;96796.47;;;13.20;100.00
57644;BME280;43474;46.510;6.686;2022-10-26T04:08:24;96786.16;;;13.07;100.00
57644;BME280;43474;46.510;6.686;2022-10-26T04:10:50;96772.06;;;12.90;100.00
57644;BME280;43474;46.510;6.686;2022-10-26T04:13:16;96823.97;;;13.09;100.00
57644;BME280;43474;46.510;6.686;2022-10-26T04:15:41;96785.13;;;12.75;100.00
57644;BME280;43474;46.510;6.686;2022-10-26T04:18:08;96815.50;;;12.96;100.00
57644;BME280;43474;46.510;6.686;2022-10-26T04:20:34;96817.28;;;12.90;100.00
57644;BME280;43474;46.510;6.686;2022-10-26T04:23:03;96863.22;;;13.02;100.00
57644;BME280;43474;46.510;6.686;2022-10-26T04:25:30;96837.50;;;12.91;100.00
57644;BME280;43474;46.510;6.686;2022-10-26T04:27:56;96821.84;;;12.78;100.00
57644;BME280;43474;46.510;6.686;2022-10-26T04:30:22;96812.59;;;12.80;100.00
57644;BME280;43474;46.510;6.686;2022-10-26T04:32:48;96798.06;;;12.54;100.00
57644;BME280;43474;46.510;6.686;2022-10-26T04:35:14;96861.53;;;12.96;100.00
57644;BME280;43474;46.510;6.686;2022-10-26T04:37:39;96786.34;;;12.84;100.00
57644;BME280;43474;46.510;6.686;2022-10-26T04:40:05;96811.56;;;12.98;100.00
57644;BME280;43474;46.510;6.686;2022-10-26T04:42:39;96775.38;;;12.63;100.00
57644;BME280;43474;46.510;6.686;2022-10-26T04:45:05;96811.97;;;12.90;100.00
57644;BME280;43474;46.510;6.686;2022-10-26T04:47:31;96776.31;;;12.57;100.00
57644;BME280;43474;46.510;6.686;2022-10-26T04:49:56;96870.31;;;12.80;100.00
57644;BME280;43474;46.510;6.686;2022-10-26T04:52:22;96887.88;;;12.81;100.00
57644;BME280;43474;46.510;6.686;2022-10-26T04:54:47;96886.09;;;12.86;100.00
57644;BME280;43474;46.510;6.686;2022-10-26T04:57:13;96877.69;;;12.78;100.00
57644;BME280;43474;46.510;6.686;2022-10-26T04:59:38;96833.28;;;12.61;100.00
57644;BME280;43474;46.510;6.686;2022-10-26T05:02:04;96763.56;;;12.42;100.00
57644;BME280;43474;46.510;6.686;2022-10-26T05:04:29;96753.88;;;12.36;100.00
57644;BME280;43474;46.510;6.686;2022-10-26T05:06:55;96837.88;;;12.83;100.00
57644;BME280;43474;46.510;6.686;2022-10-26T05:09:20;96845.22;;;12.76;100.00
57644;BME280;43474;46.510;6.686;2022-10-26T05:11:46;96824.50;;;12.61;100.00
57644;BME280;43474;46.510;6.686;2022-10-26T05:14:12;96848.19;;;12.62;100.00
57644;BME280;43474;46.510;6.686;2022-10-26T05:16:37;96848.44;;;12.61;100.00
57644;BME280;43474;46.510;6.686;2022-10-26T05:19:03;96903.03;;;12.80;100.00
57644;BME280;43474;46.510;6.686;2022-10-26T05:21:29;96907.63;;;12.85;100.00
57644;BME280;43474;46.510;6.686;2022-10-26T05:23:55;96905.13;;;12.78;100.00
57644;BME280;43474;46.510;6.686;2022-10-26T05:26:23;96903.91;;;12.69;100.00
57644;BME280;43474;46.510;6.686;2022-10-26T05:28:50;96909.22;;;12.69;100.00
57644;BME280;43474;46.510;6.686;2022-10-26T05:31:16;96899.56;;;12.51;100.00
57644;BME280;43474;46.510;6.686;2022-10-26T05:33:41;96906.13;;;12.60;100.00
57644;BME280;43474;46.510;6.686;2022-10-26T05:36:07;96909.44;;;12.67;100.00
57644;BME280;43474;46.510;6.686;2022-10-26T05:38:33;96915.44;;;12.63;100.00
57644;BME280;43474;46.510;6.686;2022-10-26T05:40:59;96918.13;;;12.63;100.00
57644;BME280;43474;46.510;6.686;2022-10-26T05:43:25;96864.84;;;12.29;100.00
57644;BME280;43474;46.510;6.686;2022-10-26T05:45:52;96900.94;;;12.54;100.00
57644;BME280;43474;46.510;6.686;2022-10-26T05:48:19;96897.78;;;12.57;100.00
57644;BME280;43474;46.510;6.686;2022-10-26T05:50:45;96878.38;;;12.56;100.00
57644;BME280;43474;46.510;6.686;2022-10-26T05:53:11;96865.16;;;12.45;100.00
57644;BME280;43474;46.510;6.686;2022-10-26T05:55:37;96899.94;;;12.72;100.00
57644;BME280;43474;46.510;6.686;2022-10-26T05:58:03;96881.13;;;12.61;100.00
57644;BME280;43474;46.510;6.686;2022-10-26T06:00:29;96889.50;;;12.53;100.00
57644;BME280;43474;46.510;6.686;2022-10-26T06:05:23;96868.75;;;12.38;100.00
57644;BME280;43474;46.510;6.686;2022-10-26T06:07:50;96888.91;;;12.51;100.00
57644;BME280;43474;46.510;6.686;2022-10-26T06:10:17;96899.50;;;12.63;100.00
57644;BME280;43474;46.510;6.686;2022-10-26T06:12:43;96894.25;;;12.51;100.00
57644;BME280;43474;46.510;6.686;2022-10-26T06:15:20;96909.81;;;12.59;100.00
57644;BME280;43474;46.510;6.686;2022-10-26T06:18:15;96871.41;;;12.38;100.00
57644;BME280;43474;46.510;6.686;2022-10-26T06:21:06;96909.91;;;12.64;100.00
57644;BME280;43474;46.510;6.686;2022-10-26T06:31:43;96861.25;;;12.35;100.00
57644;BME280;43474;46.510;6.686;2022-10-26T06:34:10;96851.06;;;12.44;100.00
57644;BME280;43474;46.510;6.686;2022-10-26T06:36:37;96912.84;;;12.80;100.00
57644;BME280;43474;46.510;6.686;2022-10-26T06:39:06;96918.75;;;12.82;100.00
57644;BME280;43474;46.510;6.686;2022-10-26T06:41:34;96916.16;;;12.87;100.00
57644;BME280;43474;46.510;6.686;2022-10-26T06:44:00;96921.09;;;12.78;100.00
57644;BME280;43474;46.510;6.686;2022-10-26T06:46:42;96916.22;;;12.75;100.00
57644;BME280;43474;46.510;6.686;2022-10-26T06:49:17;96949.41;;;13.01;100.00
57644;BME280;43474;46.510;6.686;2022-10-26T06:51:59;96937.97;;;13.01;100.00
57644;BME280;43474;46.510;6.686;2022-10-26T06:54:46;96954.44;;;13.14;100.00
57644;BME280;43474;46.510;6.686;2022-10-26T06:57:23;96912.78;;;12.91;100.00
57644;BME280;43474;46.510;6.686;2022-10-26T06:59:59;96949.91;;;13.27;100.00
57644;BME280;43474;46.510;6.686;2022-10-26T07:02:26;96961.34;;;13.27;100.00
57644;BME280;43474;46.510;6.686;2022-10-26T07:04:52;96947.72;;;13.24;100.00
57644;BME280;43474;46.510;6.686;2022-10-26T07:07:20;96941.94;;;13.15;100.00
57644;BME280;43474;46.510;6.686;2022-10-26T07:09:46;96964.94;;;13.33;100.00
57644;BME280;43474;46.510;6.686;2022-10-26T07:12:12;96932.78;;;13.23;100.00
57644;BME280;43474;46.510;6.686;2022-10-26T07:14:38;96914.09;;;13.34;100.00
57644;BME280;43474;46.510;6.686;2022-10-26T07:17:04;96930.88;;;13.68;100.00
57644;BME280;43474;46.510;6.686;2022-10-26T07:19:30;96958.44;;;13.96;100.00
57644;BME280;43474;46.510;6.686;2022-10-26T07:21:56;96963.50;;;14.14;100.00
57644;BME280;43474;46.510;6.686;2022-10-26T07:24:24;96945.84;;;14.08;100.00
57644;BME280;43474;46.510;6.686;2022-10-26T07:26:49;96904.28;;;13.90;100.00
57644;BME280;43474;46.510;6.686;2022-10-26T07:29:15;96924.72;;;14.45;100.00
57644;BME280;43474;46.510;6.686;2022-10-26T07:31:42;96908.34;;;15.40;100.00
57644;BME280;43474;46.510;6.686;2022-10-26T07:34:08;96926.91;;;15.89;100.00
57644;BME280;43474;46.510;6.686;2022-10-26T07:36:34;96896.56;;;16.15;100.00
57644;BME280;43474;46.510;6.686;2022-10-26T07:39:06;96865.53;;;15.62;100.00
57644;BME280;43474;46.510;6.686;2022-10-26T07:41:32;96942.00;;;15.68;100.00
57644;BME280;43474;46.510;6.686;2022-10-26T07:43:57;96947.09;;;15.42;100.00
57644;BME280;43474;46.510;6.686;2022-10-26T07:46:23;96905.63;;;16.04;100.00
57644;BME280;43474;46.510;6.686;2022-10-26T07:48:49;96875.38;;;16.66;100.00
57644;BME280;43474;46.510;6.686;2022-10-26T07:51:16;96861.72;;;16.68;100.00
57644;BME280;43474;46.510;6.686;2022-10-26T07:53:45;96839.56;;;16.88;100.00
57644;BME280;43474;46.510;6.686;2022-10-26T07:56:11;96916.22;;;17.70;100.00
57644;BME280;43474;46.510;6.686;2022-10-26T07:58:37;96902.53;;;17.92;100.00
57644;BME280;43474;46.510;6.686;2022-10-26T08:01:08;96929.34;;;17.92;100.00
57644;BME280;43474;46.510;6.686;2022-10-26T08:03:34;96929.31;;;18.02;100.00
57644;BME280;43474;46.510;6.686;2022-10-26T08:06:00;96908.41;;;17.99;100.00
57644;BME280;43474;46.510;6.686;2022-10-26T08:08:27;96903.22;;;18.33;100.00
57644;BME280;43474;46.510;6.686;2022-10-26T08:10:52;96928.56;;;18.67;100.00
57644;BME280;43474;46.510;6.686;2022-10-26T08:13:18;96940.13;;;18.67;100.00
57644;BME280;43474;46.510;6.686;2022-10-26T08:15:44;96887.19;;;18.78;100.00
57644;BME280;43474;46.510;6.686;2022-10-26T08:18:09;96935.34;;;19.08;100.00
57644;BME280;43474;46.510;6.686;2022-10-26T08:20:35;96936.13;;;19.14;100.00
57644;BME280;43474;46.510;6.686;2022-10-26T08:23:00;96913.97;;;19.32;100.00
57644;BME280;43474;46.510;6.686;2022-10-26T08:25:28;96943.25;;;19.34;100.00
57644;BME280;43474;46.510;6.686;2022-10-26T08:27:54;96929.31;;;19.32;100.00
57644;BME280;43474;46.510;6.686;2022-10-26T08:30:19;96942.41;;;19.38;100.00
57644;BME280;43474;46.510;6.686;2022-10-26T08:32:45;96913.25;;;19.22;100.00
57644;BME280;43474;46.510;6.686;2022-10-26T08:35:11;96941.31;;;19.45;100.00
57644;BME280;43474;46.510;6.686;2022-10-26T08:37:36;96904.81;;;19.33;100.00
57644;BME280;43474;46.510;6.686;2022-10-26T08:40:03;96867.97;;;19.39;100.00
57644;BME280;43474;46.510;6.686;2022-10-26T08:42:38;96892.50;;;19.67;100.00
57644;BME280;43474;46.510;6.686;2022-10-26T08:45:36;96914.91;;;19.86;100.00
57644;BME280;43474;46.510;6.686;2022-10-26T08:48:12;96863.38;;;19.74;100.00
57644;BME280;43474;46.510;6.686;2022-10-26T08:50:44;96886.13;;;19.86;100.00
57644;BME280;43474;46.510;6.686;2022-10-26T08:56:10;96940.84;;;20.30;100.00
57644;BME280;43474;46.510;6.686;2022-10-26T08:58:42;96959.88;;;20.09;100.00
57644;BME280;43474;46.510;6.686;2022-10-26T09:01:11;96959.19;;;20.23;100.00
57644;BME280;43474;46.510;6.686;2022-10-26T09:03:37;96954.75;;;20.37;100.00
57644;BME280;43474;46.510;6.686;2022-10-26T09:11:39;96919.13;;;20.21;100.00
57644;BME280;43474;46.510;6.686;2022-10-26T09:14:22;96977.75;;;20.77;100.00
57644;BME280;43474;46.510;6.686;2022-10-26T09:20:15;96942.25;;;20.46;100.00
57644;BME280;43474;46.510;6.686;2022-10-26T09:23:28;96967.63;;;20.69;100.00
57644;BME280;43474;46.510;6.686;2022-10-26T09:25:59;96895.69;;;20.46;100.00
57644;BME280;43474;46.510;6.686;2022-10-26T09:28:27;96963.66;;;21.04;100.00
57644;BME280;43474;46.510;6.686;2022-10-26T09:30:58;96938.81;;;20.88;100.00
57644;BME280;43474;46.510;6.686;2022-10-26T09:33:25;96916.09;;;20.95;100.00
57644;BME280;43474;46.510;6.686;2022-10-26T09:36:21;96957.13;;;21.10;100.00
57644;BME280;43474;46.510;6.686;2022-10-26T09:39:18;96979.41;;;21.16;100.00
57644;BME280;43474;46.510;6.686;2022-10-26T09:42:00;96921.84;;;20.88;100.00
57644;BME280;43474;46.510;6.686;2022-10-26T09:44:41;96915.50;;;20.98;100.00
57644;BME280;43474;46.510;6.686;2022-10-26T09:49:49;96989.19;;;21.31;99.21
57644;BME280;43474;46.510;6.686;2022-10-26T09:52:15;96994.28;;;21.32;98.14
57644;BME280;43474;46.510;6.686;2022-10-26T09:54:41;96992.09;;;21.15;95.70
57644;BME280;43474;46.510;6.686;2022-10-26T09:57:08;96959.81;;;21.29;97.15
57644;BME280;43474;46.510;6.686;2022-10-26T09:59:37;97003.41;;;21.55;100.00
57644;BME280;43474;46.510;6.686;2022-10-26T10:02:36;97008.22;;;21.58;94.90
57644;BME280;43474;46.510;6.686;2022-10-26T10:05:20;96989.28;;;21.45;98.43
57644;BME280;43474;46.510;6.686;2022-10-26T10:07:46;96991.44;;;21.42;99.63
57644;BME280;43474;46.510;6.686;2022-10-26T10:10:21;97015.22;;;21.59;100.00
57644;BME280;43474;46.510;6.686;2022-10-26T10:12:49;97011.47;;;21.93;100.00
57644;BME280;43474;46.510;6.686;2022-10-26T10:15:20;97017.38;;;21.95;95.61
57644;BME280;43474;46.510;6.686;2022-10-26T10:17:48;97013.72;;;21.86;96.68
57644;BME280;43474;46.510;6.686;2022-10-26T10:20:18;97020.31;;;21.80;100.00
57644;BME280;43474;46.510;6.686;2022-10-26T10:22:51;97021.13;;;21.61;100.00
57644;BME280;43474;46.510;6.686;2022-10-26T10:25:31;97005.94;;;21.84;100.00
57644;BME280;43474;46.510;6.686;2022-10-26T10:27:57;97002.72;;;21.82;97.46
57644;BME280;43474;46.510;6.686;2022-10-26T10:30:31;96982.56;;;21.61;100.00
57644;BME280;43474;46.510;6.686;2022-10-26T10:33:13;97010.78;;;22.01;98.75
57644;BME280;43474;46.510;6.686;2022-10-26T10:35:47;97008.63;;;21.84;100.00
57644;BME280;43474;46.510;6.686;2022-10-26T10:38:19;97016.34;;;21.91;95.79
57644;BME280;43474;46.510;6.686;2022-10-26T10:40:50;97018.75;;;21.92;96.57
57644;BME280;43474;46.510;6.686;2022-10-26T10:43:17;97026.72;;;21.84;99.49
57644;BME280;43474;46.510;6.686;2022-10-26T10:45:47;97010.03;;;21.63;98.19
57644;BME280;43474;46.510;6.686;2022-10-26T10:48:15;97025.75;;;21.93;93.48
57644;BME280;43474;46.510;6.686;2022-10-26T10:58:36;97016.72;;;21.84;100.00
57644;BME280;43474;46.510;6.686;2022-10-26T11:01:12;97021.88;;;22.18;100.00
57644;BME280;43474;46.510;6.686;2022-10-26T11:04:07;97012.69;;;22.33;93.15
57644;BME280;43474;46.510;6.686;2022-10-26T11:06:38;97019.13;;;22.51;98.42
57644;BME280;43474;46.510;6.686;2022-10-26T11:09:12;97030.28;;;21.98;100.00
57644;BME280;43474;46.510;6.686;2022-10-26T11:11:46;97024.75;;;21.89;99.33
57644;BME280;43474;46.510;6.686;2022-10-26T11:14:17;97006.09;;;21.74;95.94
57644;BME280;43474;46.510;6.686;2022-10-26T11:17:01;97005.38;;;22.01;100.00
57644;BME280;43474;46.510;6.686;2022-10-26T11:19:35;96983.00;;;22.01;97.19
57644;BME280;43474;46.510;6.686;2022-10-26T11:22:05;97012.22;;;22.12;97.50
57644;BME280;43474;46.510;6.686;2022-10-26T11:24:41;96966.78;;;22.01;98.32
57644;BME280;43474;46.510;6.686;2022-10-26T11:27:30;97016.38;;;22.37;91.76
57644;BME280;43474;46.510;6.686;2022-10-26T11:30:02;97004.69;;;22.28;97.80
57644;BME280;43474;46.510;6.686;2022-10-26T11:32:49;96992.81;;;22.10;93.53
57644;BME280;43474;46.510;6.686;2022-10-26T11:35:19;97024.41;;;22.42;96.97
57644;BME280;43474;46.510;6.686;2022-10-26T11:40:26;97001.69;;;22.30;95.74
57644;BME280;43474;46.510;6.686;2022-10-26T11:45:30;97004.59;;;22.47;100.00
57644;BME280;43474;46.510;6.686;2022-10-26T11:48:05;96994.91;;;22.46;95.91
57644;BME280;43474;46.510;6.686;2022-10-26T11:50:40;97003.22;;;22.63;93.37
57644;BME280;43474;46.510;6.686;2022-10-26T11:53:11;96994.28;;;22.35;97.06
57644;BME280;43474;46.510;6.686;2022-10-26T11:55:39;97003.31;;;22.44;94.35
57644;BME280;43474;46.510;6.686;2022-10-26T11:58:08;96993.06;;;22.28;98.21
57644;BME280;43474;46.510;6.686;2022-10-26T12:00:42;96995.00;;;22.41;95.74
57644;BME280;43474;46.510;6.686;2022-10-26T12:03:11;96949.59;;;21.97;97.07
57644;BME280;43474;46.510;6.686;2022-10-26T12:08:10;96988.50;;;22.28;93.07
57644;BME280;43474;46.510;6.686;2022-10-26T12:10:40;96966.34;;;22.12;96.12
57644;BME280;43474;46.510;6.686;2022-10-26T12:13:23;97003.91;;;22.09;93.40
57644;BME280;43474;46.510;6.686;2022-10-26T12:18:44;96972.16;;;21.87;95.85
57644;BME280;43474;46.510;6.686;2022-10-26T12:21:12;96993.66;;;21.92;96.13
57644;BME280;43474;46.510;6.686;2022-10-26T12:23:54;96980.13;;;21.78;97.78
57644;BME280;43474;46.510;6.686;2022-10-26T12:34:01;97008.91;;;21.83;97.47
57644;BME280;43474;46.510;6.686;2022-10-26T12:37:09;97006.66;;;21.90;99.39
57644;BME280;43474;46.510;6.686;2022-10-26T12:39:40;96999.94;;;21.87;99.93
57644;BME280;43474;46.510;6.686;2022-10-26T12:44:59;97006.28;;;21.78;96.64
57644;BME280;43474;46.510;6.686;2022-10-26T12:52:43;96999.75;;;21.65;99.00
57644;BME280;43474;46.510;6.686;2022-10-26T12:58:44;97000.97;;;21.73;99.78
57644;BME280;43474;46.510;6.686;2022-10-26T13:01:27;96988.06;;;21.88;100.00
57644;BME280;43474;46.510;6.686;2022-10-26T13:06:57;96999.25;;;22.14;98.11
57644;BME280;43474;46.510;6.686;2022-10-26T13:09:31;96995.38;;;22.21;99.66
57644;BME280;43474;46.510;6.686;2022-10-26T13:12:00;96968.81;;;22.09;98.79
57644;BME280;43474;46.510;6.686;2022-10-26T13:14:31;96972.78;;;21.98;98.62
57644;BME280;43474;46.510;6.686;2022-10-26T13:16:59;96980.41;;;21.77;99.75
57644;BME280;43474;46.510;6.686;2022-10-26T13:19:46;96995.72;;;21.81;99.41
57644;BME280;43474;46.510;6.686;2022-10-26T13:22:15;96987.81;;;22.04;96.29
57644;BME280;43474;46.510;6.686;2022-10-26T13:25:03;96992.25;;;22.13;98.20
57644;BME280;43474;46.510;6.686;2022-10-26T13:32:34;96959.56;;;22.15;94.98
57644;BME280;43474;46.510;6.686;2022-10-26T13:35:01;96982.25;;;22.28;98.16
57644;BME280;43474;46.510;6.686;2022-10-26T13:37:30;96984.78;;;22.24;97.73
57644;BME280;43474;46.510;6.686;2022-10-26T13:39:58;96967.81;;;22.05;97.81
57644;BME280;43474;46.510;6.686;2022-10-26T13:42:27;96979.66;;;22.23;99.52
57644;BME280;43474;46.510;6.686;2022-10-26T13:45:07;96970.94;;;22.12;100.00
57644;BME280;43474;46.510;6.686;2022-10-26T13:48:00;96969.97;;;21.89;100.00
57644;BME280;43474;46.510;6.686;2022-10-26T13:50:28;96968.56;;;21.91;100.00
57644;BME280;43474;46.510;6.686;2022-10-26T13:52:59;96962.41;;;22.05;100.00
57644;BME280;43474;46.510;6.686;2022-10-26T13:55:37;96973.63;;;22.12;100.00
57644;BME280;43474;46.510;6.686;2022-10-26T14:03:29;96960.06;;;22.17;99.58
57644;BME280;43474;46.510;6.686;2022-10-26T14:05:55;96972.78;;;21.98;98.16
57644;BME280;43474;46.510;6.686;2022-10-26T14:08:21;96933.44;;;21.45;100.00
57644;BME280;43474;46.510;6.686;2022-10-26T14:10:52;96964.25;;;21.58;100.00
57644;BME280;43474;46.510;6.686;2022-10-26T14:13:23;96964.06;;;21.54;100.00
57644;BME280;43474;46.510;6.686;2022-10-26T14:15:53;96952.72;;;21.38;100.00
57644;BME280;43474;46.510;6.686;2022-10-26T14:18:25;96932.72;;;21.21;100.00
57644;BME280;43474;46.510;6.686;2022-10-26T14:21:06;96892.72;;;21.09;100.00
57644;BME280;43474;46.510;6.686;2022-10-26T14:23:54;96920.31;;;21.20;100.00
57644;BME280;43474;46.510;6.686;2022-10-26T14:26:26;96888.94;;;20.91;100.00
57644;BME280;43474;46.510;6.686;2022-10-26T14:29:00;96885.72;;;20.46;100.00
57644;BME280;43474;46.510;6.686;2022-10-26T14:31:31;96950.50;;;20.60;100.00
57644;BME280;43474;46.510;6.686;2022-10-26T14:33:59;96953.38;;;20.87;100.00
57644;BME280;43474;46.510;6.686;2022-10-26T14:41:58;96917.41;;;20.06;100.00
57644;BME280;43474;46.510;6.686;2022-10-26T14:44:30;96902.66;;;19.75;100.00
57644;BME280;43474;46.510;6.686;2022-10-26T14:46:56;96950.75;;;19.76;100.00
57644;BME280;43474;46.510;6.686;2022-10-26T14:49:27;96901.25;;;19.43;100.00
57644;BME280;43474;46.510;6.686;2022-10-26T14:51:58;96904.03;;;19.33;100.00
57644;BME280;43474;46.510;6.686;2022-10-26T14:54:41;96884.78;;;19.21;100.00
57644;BME280;43474;46.510;6.686;2022-10-26T14:57:34;96882.91;;;19.21;100.00
57644;BME280;43474;46.510;6.686;2022-10-26T15:00:19;96907.63;;;19.52;100.00